Time;durP1;ratioP1;P1;durP2;ratioP2;P2;SDS_P1;SDS_P2;PMS_P1;PMS_P2;Temp;Humidity;BMP_temperature;BMP_pressure;BME280_temperature;BME280_humidity;BME280_pressure;Samples;Min_cycle;Max_cycle;Signal;HPM_P1;HPM_P2
2023/07/21 00:01:08;;;;;;;5.87;4.13;;;13.20;78.90;;;;;;5023749;28;20344;-66
2023/07/21 00:03:34;;;;;;;4.80;3.77;;;13.10;79.10;;;;;;5035854;28;20357;-66
2023/07/21 00:06:01;;;;;;;7.33;3.80;;;13.00;79.20;;;;;;5038141;28;20294;-67
2023/07/21 00:08:28;;;;;;;5.00;4.23;;;13.00;79.10;;;;;;5050735;28;20310;-66
2023/07/21 00:10:56;;;;;;;9.03;4.50;;;12.90;79.50;;;;;;5051122;28;20282;-66
2023/07/21 00:13:22;;;;;;;6.37;4.70;;;12.90;79.60;;;;;;5046923;28;20279;-66
2023/07/21 00:15:49;;;;;;;5.30;4.27;;;12.80;79.70;;;;;;5041658;28;20632;-67
2023/07/21 00:18:15;;;;;;;6.93;4.17;;;12.70;79.80;;;;;;5053868;28;20612;-66
2023/07/21 00:20:41;;;;;;;7.97;5.00;;;12.60;80.10;;;;;;5051458;28;20283;-66
2023/07/21 00:23:07;;;;;;;5.13;4.30;;;12.60;80.20;;;;;;5055085;28;20284;-66
2023/07/21 00:25:32;;;;;;;6.77;4.33;;;12.50;80.40;;;;;;5035723;28;20287;-66
2023/07/21 00:27:58;;;;;;;6.30;4.53;;;12.40;80.60;;;;;;5047755;28;20115;-66
2023/07/21 00:30:24;;;;;;;8.77;5.27;;;12.40;80.70;;;;;;5046032;28;20043;-66
2023/07/21 00:32:50;;;;;;;7.83;5.53;;;12.30;81.80;;;;;;5045176;28;20051;-66
2023/07/21 00:35:16;;;;;;;5.83;4.90;;;12.30;82.30;;;;;;5051571;28;20041;-66
2023/07/21 00:37:42;;;;;;;6.40;5.43;;;12.20;81.90;;;;;;5045544;28;20302;-66
2023/07/21 00:40:23;;;;;;;8.73;5.57;;;12.20;82.50;;;;;;5038463;28;20355;-66
2023/07/21 00:42:48;;;;;;;10.20;4.97;;;12.20;83.50;;;;;;5038940;28;20048;-66
2023/07/21 00:45:14;;;;;;;8.17;5.60;;;12.10;83.90;;;;;;5025922;28;20283;-66
2023/07/21 00:47:41;;;;;;;7.00;5.27;;;12.00;84.10;;;;;;5037216;28;20103;-66
2023/07/21 00:50:11;;;;;;;6.57;5.27;;;12.00;83.90;;;;;;5049203;28;20564;-66
2023/07/21 00:52:37;;;;;;;9.90;6.13;;;12.00;83.60;;;;;;5065931;28;20311;-67
2023/07/21 00:55:04;;;;;;;10.63;6.00;;;11.90;83.80;;;;;;5042067;28;20312;-66
2023/07/21 00:57:31;;;;;;;7.47;5.30;;;11.90;84.10;;;;;;5041761;28;20052;-66
2023/07/21 00:59:57;;;;;;;8.23;5.60;;;11.80;84.20;;;;;;5039257;28;20806;-66
2023/07/21 01:02:23;;;;;;;8.43;5.47;;;11.80;85.10;;;;;;5049716;28;20287;-66
2023/07/21 01:04:49;;;;;;;8.50;5.87;;;11.80;85.30;;;;;;5034429;28;20401;-66
2023/07/21 01:07:15;;;;;;;7.03;5.43;;;11.80;84.80;;;;;;5049201;28;20045;-66
2023/07/21 01:09:43;;;;;;;11.77;5.77;;;11.70;84.70;;;;;;5050519;28;20276;-66
2023/07/21 01:12:09;;;;;;;6.47;5.10;;;11.70;84.70;;;;;;5050248;28;20297;-66
2023/07/21 01:14:37;;;;;;;8.23;5.37;;;11.70;84.60;;;;;;5053664;28;20374;-66
2023/07/21 01:17:06;;;;;;;7.57;5.67;;;11.70;84.50;;;;;;5043615;28;20383;-66
2023/07/21 01:19:32;;;;;;;6.23;4.77;;;11.70;84.70;;;;;;5045510;28;20306;-66
2023/07/21 01:22:28;;;;;;;8.43;5.53;;;11.60;84.80;;;;;;5048241;28;20337;-66
2023/07/21 01:24:54;;;;;;;6.77;5.27;;;11.60;84.60;;;;;;5055197;28;20632;-66
2023/07/21 01:27:23;;;;;;;8.03;5.27;;;11.60;84.70;;;;;;5044456;28;20311;-66
2023/07/21 01:29:51;;;;;;;8.10;5.30;;;11.60;84.70;;;;;;5041098;28;20037;-66
2023/07/21 01:32:19;;;;;;;10.80;5.37;;;11.60;85.10;;;;;;5046106;28;20349;-66
2023/07/21 01:34:45;;;;;;;7.43;4.73;;;11.60;84.80;;;;;;5063450;28;20288;-66
2023/07/21 01:37:13;;;;;;;7.23;5.00;;;11.60;84.60;;;;;;5045407;28;20391;-66
2023/07/21 01:39:40;;;;;;;8.37;5.23;;;11.60;85.20;;;;;;5061204;28;20283;-66
2023/07/21 01:42:07;;;;;;;9.83;5.37;;;11.60;85.00;;;;;;5040815;28;20307;-66
2023/07/21 01:44:34;;;;;;;9.47;5.00;;;11.60;84.80;;;;;;5049645;28;20291;-66
2023/07/21 01:47:00;;;;;;;6.13;4.80;;;11.60;84.80;;;;;;5050792;28;20784;-66
2023/07/21 01:49:25;;;;;;;9.33;5.53;;;11.60;84.80;;;;;;5040432;28;20292;-66
2023/07/21 01:51:57;;;;;;;7.30;5.30;;;11.60;84.60;;;;;;5044688;28;20287;-66
2023/07/21 01:54:52;;;;;;;9.03;5.53;;;11.50;84.60;;;;;;5048486;28;20040;-66
2023/07/21 01:57:26;;;;;;;6.53;4.97;;;11.50;84.70;;;;;;5045106;28;20283;-66
2023/07/21 01:59:53;;;;;;;9.70;5.50;;;11.50;85.00;;;;;;5049768;28;20791;-66
2023/07/21 02:02:20;;;;;;;8.07;5.68;;;11.40;85.00;;;;;;5031320;28;20287;-67
2023/07/21 02:04:53;;;;;;;6.33;5.17;;;11.40;85.40;;;;;;5028746;28;20116;-66
2023/07/21 02:07:20;;;;;;;7.60;5.40;;;11.40;85.40;;;;;;5046359;28;20303;-66
2023/07/21 02:09:51;;;;;;;7.40;5.10;;;11.40;85.50;;;;;;5035416;28;20287;-66
2023/07/21 02:12:17;;;;;;;6.53;4.82;;;11.40;85.50;;;;;;5040562;28;20568;-66
2023/07/21 02:14:42;;;;;;;9.17;4.80;;;11.40;85.60;;;;;;5049167;28;20051;-66
2023/07/21 02:17:08;;;;;;;8.50;5.07;;;11.30;85.50;;;;;;5034637;28;20076;-66
2023/07/21 02:19:34;;;;;;;8.37;6.20;;;11.30;85.50;;;;;;5035474;28;20051;-66
2023/07/21 02:22:00;;;;;;;7.50;5.33;;;11.30;86.20;;;;;;5042621;28;20077;-66
2023/07/21 02:24:26;;;;;;;9.07;5.30;;;11.30;86.20;;;;;;5048632;28;20041;-66
2023/07/21 02:26:53;;;;;;;8.23;5.57;;;11.30;86.20;;;;;;5049371;28;20061;-66
2023/07/21 02:29:19;;;;;;;7.72;5.55;;;11.30;86.50;;;;;;5043236;28;20093;-66
2023/07/21 02:31:46;;;;;;;5.90;5.07;;;11.30;86.80;;;;;;5040257;28;20036;-66
2023/07/21 02:34:12;;;;;;;9.60;5.85;;;11.30;86.70;;;;;;5040189;28;21386;-66
2023/07/21 02:36:38;;;;;;;9.02;4.80;;;11.30;86.90;;;;;;5042021;28;20476;-66
2023/07/21 02:39:04;;;;;;;9.20;5.40;;;11.30;87.10;;;;;;5049063;28;20041;-66
2023/07/21 02:41:30;;;;;;;7.47;5.25;;;11.30;87.00;;;;;;5044253;28;20044;-66
2023/07/21 02:43:56;;;;;;;8.77;5.03;;;11.40;87.40;;;;;;5046434;28;20482;-66
2023/07/21 02:46:22;;;;;;;7.07;4.63;;;11.40;87.70;;;;;;5032102;28;20049;-66
2023/07/21 02:48:48;;;;;;;7.60;5.13;;;11.40;87.40;;;;;;5047322;28;20080;-66
2023/07/21 02:51:13;;;;;;;7.20;4.90;;;11.50;87.70;;;;;;5044315;28;20340;-66
2023/07/21 02:53:39;;;;;;;6.77;4.87;;;11.50;87.80;;;;;;5029142;28;20029;-66
2023/07/21 02:56:05;;;;;;;8.47;4.87;;;11.60;87.70;;;;;;5038001;28;20094;-66
2023/07/21 02:58:32;;;;;;;8.17;4.43;;;11.70;87.60;;;;;;5045329;28;20041;-66
2023/07/21 03:00:59;;;;;;;7.70;4.90;;;11.70;87.40;;;;;;5049216;28;20052;-66
2023/07/21 03:03:26;;;;;;;8.03;4.50;;;11.80;87.50;;;;;;5042311;28;20306;-66
2023/07/21 03:05:52;;;;;;;7.90;4.97;;;11.80;87.40;;;;;;5027723;28;20290;-66
2023/07/21 03:08:26;;;;;;;6.20;4.30;;;11.80;87.20;;;;;;5047742;28;20789;-66
2023/07/21 03:10:53;;;;;;;7.70;4.88;;;11.90;87.30;;;;;;5049818;28;20648;-66
2023/07/21 03:13:20;;;;;;;6.23;4.37;;;11.90;87.20;;;;;;5048423;28;20048;-66
2023/07/21 03:15:46;;;;;;;7.15;4.68;;;11.90;87.20;;;;;;5032193;28;20283;-67
2023/07/21 03:18:12;;;;;;;7.97;4.40;;;11.90;87.20;;;;;;5048231;28;20040;-66
2023/07/21 03:20:38;;;;;;;8.23;4.60;;;11.80;87.20;;;;;;5052240;28;20275;-66
2023/07/21 03:23:07;;;;;;;5.50;4.43;;;11.80;87.00;;;;;;5038384;28;20102;-66
2023/07/21 03:25:37;;;;;;;7.27;4.73;;;11.70;87.00;;;;;;5038586;28;20045;-66
2023/07/21 03:28:04;;;;;;;6.53;4.10;;;11.70;87.00;;;;;;5046593;28;20667;-66
2023/07/21 03:30:29;;;;;;;6.40;4.60;;;11.70;87.10;;;;;;5045139;28;20302;-66
2023/07/21 03:32:55;;;;;;;8.27;5.00;;;11.70;87.40;;;;;;5043040;28;20275;-66
2023/07/21 03:35:21;;;;;;;7.57;4.40;;;11.60;87.50;;;;;;5037727;28;20068;-66
2023/07/21 03:37:46;;;;;;;9.47;4.53;;;11.60;87.50;;;;;;5042097;28;20644;-66
2023/07/21 03:40:12;;;;;;;8.60;5.67;;;11.60;87.40;;;;;;5044356;28;20041;-66
2023/07/21 03:42:38;;;;;;;8.23;6.53;;;11.60;87.30;;;;;;5052046;28;20051;-66
2023/07/21 03:45:05;;;;;;;7.60;5.53;;;11.60;87.70;;;;;;5048593;28;20036;-66
2023/07/21 03:47:35;;;;;;;10.33;6.70;;;11.60;87.80;;;;;;5048576;28;20041;-66
2023/07/21 03:50:01;;;;;;;9.63;6.13;;;11.60;88.00;;;;;;5042965;28;20288;-66
2023/07/21 03:52:27;;;;;;;9.20;6.33;;;11.60;88.30;;;;;;5049553;28;20288;-66
2023/07/21 03:54:54;;;;;;;10.23;5.93;;;11.70;88.20;;;;;;5028317;28;20283;-66
2023/07/21 03:57:20;;;;;;;11.30;6.07;;;11.70;88.40;;;;;;5050637;28;20044;-66
2023/07/21 03:59:49;;;;;;;9.33;5.50;;;11.80;88.50;;;;;;5048939;28;20303;-66
2023/07/21 04:02:18;;;;;;;8.82;5.43;;;11.90;88.60;;;;;;5050062;28;20367;-66
2023/07/21 04:04:45;;;;;;;12.03;5.33;;;12.00;88.70;;;;;;5046987;28;20034;-66
2023/07/21 04:07:11;;;;;;;8.20;4.40;;;12.10;88.30;;;;;;5035096;28;20787;-66
2023/07/21 04:09:37;;;;;;;8.20;4.73;;;12.10;88.10;;;;;;5044142;28;20308;-66
2023/07/21 04:12:04;;;;;;;10.83;4.63;;;12.20;88.10;;;;;;5045326;28;20314;-66
2023/07/21 04:14:30;;;;;;;7.67;4.47;;;12.20;87.90;;;;;;5053753;28;20060;-67
2023/07/21 04:16:56;;;;;;;8.53;4.43;;;12.20;88.00;;;;;;5034655;28;20862;-66
2023/07/21 04:19:22;;;;;;;6.80;4.83;;;12.30;88.10;;;;;;5050381;28;20123;-66
2023/07/21 04:21:48;;;;;;;7.50;4.27;;;12.30;88.00;;;;;;5045795;28;20029;-66
2023/07/21 04:24:14;;;;;;;5.87;4.20;;;12.40;88.10;;;;;;5052698;28;20047;-66
2023/07/21 04:26:40;;;;;;;8.43;4.23;;;12.50;88.20;;;;;;5043378;28;20315;-66
2023/07/21 04:29:06;;;;;;;10.23;4.87;;;12.50;87.90;;;;;;5023060;28;20328;-66
2023/07/21 04:31:32;;;;;;;8.13;5.07;;;12.60;87.90;;;;;;5041970;28;20100;-66
2023/07/21 04:33:59;;;;;;;7.43;5.07;;;12.60;87.80;;;;;;5044830;28;20120;-66
2023/07/21 04:36:24;;;;;;;8.07;4.80;;;12.70;87.80;;;;;;5047368;28;20287;-66
2023/07/21 04:38:50;;;;;;;8.60;5.43;;;12.80;88.00;;;;;;5048614;28;20296;-66
2023/07/21 04:41:16;;;;;;;7.03;4.60;;;12.80;88.10;;;;;;5034831;28;20037;-66
2023/07/21 04:43:43;;;;;;;6.37;4.80;;;12.90;87.60;;;;;;5043492;28;20048;-66
2023/07/21 04:46:10;;;;;;;7.40;5.03;;;13.00;87.60;;;;;;5054815;28;20059;-67
2023/07/21 04:48:36;;;;;;;11.13;5.00;;;13.10;87.50;;;;;;5043884;28;20708;-67
2023/07/21 04:51:03;;;;;;;10.03;4.90;;;13.10;87.70;;;;;;5041452;28;20358;-67
2023/07/21 04:53:29;;;;;;;10.67;5.30;;;13.20;87.50;;;;;;5050237;28;20291;-67
2023/07/21 04:55:57;;;;;;;8.00;5.13;;;13.30;87.50;;;;;;5051202;28;20283;-67
2023/07/21 04:58:23;;;;;;;11.67;5.47;;;13.40;87.50;;;;;;5034148;28;20296;-67
2023/07/21 05:00:49;;;;;;;8.67;4.70;;;13.40;87.60;;;;;;5046880;28;20280;-67
2023/07/21 05:03:14;;;;;;;6.83;4.87;;;13.50;87.90;;;;;;5035919;28;20609;-67
2023/07/21 05:05:40;;;;;;;7.93;4.90;;;13.60;87.80;;;;;;5043933;28;20055;-67
2023/07/21 05:08:06;;;;;;;6.30;4.33;;;13.80;87.70;;;;;;5041820;28;20192;-67
2023/07/21 05:10:32;;;;;;;8.10;4.73;;;14.00;87.80;;;;;;5041319;28;20393;-67
2023/07/21 05:12:59;;;;;;;8.50;4.83;;;14.50;88.60;;;;;;5032081;28;20041;-67
2023/07/21 05:15:25;;;;;;;8.80;4.60;;;15.20;87.90;;;;;;5038366;28;20268;-67
2023/07/21 05:17:51;;;;;;;6.63;4.40;;;15.70;85.90;;;;;;5047390;28;20387;-67
2023/07/21 05:20:19;;;;;;;8.93;4.30;;;15.90;84.70;;;;;;5049860;28;20408;-67
2023/07/21 05:22:46;;;;;;;8.53;3.97;;;16.20;84.20;;;;;;5041528;28;20045;-67
2023/07/21 05:25:16;;;;;;;7.50;3.97;;;16.70;83.90;;;;;;5046548;28;20764;-67
2023/07/21 05:27:42;;;;;;;8.77;4.40;;;17.10;82.50;;;;;;5048244;28;20299;-67
2023/07/21 05:30:11;;;;;;;7.67;4.40;;;17.40;81.50;;;;;;5046291;28;20652;-68
2023/07/21 05:32:39;;;;;;;7.83;4.63;;;17.50;79.30;;;;;;5040265;28;20112;-68
2023/07/21 05:35:07;;;;;;;8.87;4.37;;;17.40;78.60;;;;;;5036501;28;20272;-68
2023/07/21 05:37:33;;;;;;;8.30;5.13;;;17.20;78.50;;;;;;5043115;28;20342;-68
2023/07/21 05:39:58;;;;;;;8.37;4.83;;;17.00;78.90;;;;;;5065682;28;20280;-68
2023/07/21 05:42:24;;;;;;;10.17;5.40;;;16.80;79.70;;;;;;5045353;28;20182;-66
2023/07/21 05:44:50;;;;;;;9.17;4.80;;;16.80;80.30;;;;;;5034232;28;20055;-66
2023/07/21 05:47:15;;;;;;;7.53;4.90;;;16.90;80.40;;;;;;5024860;28;20045;-66
2023/07/21 05:49:41;;;;;;;18.10;5.20;;;17.00;80.70;;;;;;5042641;28;20041;-67
2023/07/21 05:52:07;;;;;;;6.83;4.80;;;17.20;81.00;;;;;;5039613;28;20047;-67
2023/07/21 05:54:33;;;;;;;5.57;4.03;;;17.50;80.60;;;;;;5043915;28;20048;-67
2023/07/21 05:56:59;;;;;;;4.97;4.17;;;17.90;80.20;;;;;;5042001;28;20041;-68
2023/07/21 05:59:24;;;;;;;6.33;4.67;;;18.40;78.70;;;;;;5046346;28;20061;-67
2023/07/21 06:01:51;;;;;;;8.13;5.13;;;18.80;76.50;;;;;;5038221;28;20037;-67
2023/07/21 06:04:17;;;;;;;9.40;4.40;;;18.90;75.10;;;;;;5032480;28;20053;-67
2023/07/21 06:06:43;;;;;;;5.77;3.87;;;18.90;74.90;;;;;;5038694;28;20287;-67
2023/07/21 06:09:08;;;;;;;7.53;4.07;;;18.80;74.90;;;;;;5036521;28;20045;-67
2023/07/21 06:11:34;;;;;;;8.33;3.70;;;18.80;74.40;;;;;;5035080;28;20280;-67
2023/07/21 06:14:00;;;;;;;6.17;3.70;;;18.80;75.00;;;;;;5038289;28;20041;-67
2023/07/21 06:16:26;;;;;;;5.47;3.73;;;18.90;75.00;;;;;;5029144;28;20037;-67
2023/07/21 06:18:52;;;;;;;6.57;3.33;;;18.90;74.80;;;;;;5045647;28;20044;-67
2023/07/21 06:21:20;;;;;;;8.43;3.43;;;19.00;74.40;;;;;;5037732;28;20489;-67
2023/07/21 06:23:46;;;;;;;7.37;3.87;;;19.00;73.20;;;;;;5041748;28;20040;-67
2023/07/21 06:26:12;;;;;;;5.57;3.23;;;19.00;73.20;;;;;;5031069;28;20302;-67
2023/07/21 06:28:38;;;;;;;8.13;3.80;;;19.10;73.30;;;;;;5038793;28;20065;-67
2023/07/21 06:31:03;;;;;;;5.73;3.33;;;19.20;72.90;;;;;;5025627;28;20072;-67
2023/07/21 06:33:29;;;;;;;6.53;3.10;;;19.20;72.10;;;;;;5035504;28;20045;-67
2023/07/21 06:35:55;;;;;;;5.07;3.43;;;19.10;72.10;;;;;;5035024;28;20042;-67
2023/07/21 06:38:21;;;;;;;6.87;3.30;;;19.10;71.80;;;;;;5038772;28;20127;-67
2023/07/21 06:40:46;;;;;;;5.00;3.07;;;19.10;72.20;;;;;;5044478;28;20037;-67
2023/07/21 06:43:13;;;;;;;3.97;3.03;;;19.00;71.70;;;;;;5046259;28;20073;-67
2023/07/21 06:45:40;;;;;;;7.03;3.70;;;19.00;72.30;;;;;;5038213;28;20051;-67
2023/07/21 06:48:06;;;;;;;7.10;3.27;;;19.10;72.60;;;;;;5044923;28;20126;-69
2023/07/21 06:50:32;;;;;;;4.17;2.30;;;19.40;72.20;;;;;;5030066;28;20037;-69
2023/07/21 06:53:01;;;;;;;4.23;2.33;;;19.90;71.00;;;;;;5031414;28;20086;-69
2023/07/21 06:55:27;;;;;;;4.73;2.80;;;20.50;69.20;;;;;;5035640;28;20044;-68
2023/07/21 06:57:52;;;;;;;4.43;2.77;;;21.00;67.80;;;;;;5047739;28;20116;-68
2023/07/21 07:00:23;;;;;;;4.87;2.40;;;21.60;66.30;;;;;;5038321;28;20136;-69
2023/07/21 07:02:49;;;;;;;5.23;2.97;;;22.00;64.40;;;;;;5034746;28;20493;-69
2023/07/21 07:05:18;;;;;;;2.90;1.93;;;22.50;63.60;;;;;;5039835;28;20059;-69
2023/07/21 07:07:45;;;;;;;2.50;1.60;;;22.60;61.50;;;;;;5044584;28;20103;-69
2023/07/21 07:10:10;;;;;;;2.60;1.00;;;22.60;61.20;;;;;;5048057;28;20079;-69
2023/07/21 07:12:38;;;;;;;3.27;2.07;;;22.30;61.40;;;;;;5023074;28;20037;-70
2023/07/21 07:15:04;;;;;;;3.70;2.20;;;22.10;61.90;;;;;;5035617;28;20053;-69
2023/07/21 07:17:30;;;;;;;3.00;1.23;;;21.60;62.20;;;;;;5037512;28;20056;-70
2023/07/21 07:19:56;;;;;;;2.63;2.37;;;21.20;62.70;;;;;;5035249;28;20394;-68
2023/07/21 07:22:22;;;;;;;4.53;3.20;;;20.90;63.40;;;;;;5046342;28;20718;-69
2023/07/21 07:24:48;;;;;;;2.33;1.47;;;20.70;64.30;;;;;;5036809;28;20049;-70
2023/07/21 07:27:13;;;;;;;2.77;1.87;;;20.70;64.40;;;;;;5039920;28;20045;-70
2023/07/21 07:29:40;;;;;;;3.73;3.30;;;20.80;64.10;;;;;;5027704;28;20070;-69
2023/07/21 07:32:07;;;;;;;5.17;2.87;;;20.90;63.20;;;;;;5043765;28;20048;-69
2023/07/21 07:34:32;;;;;;;4.40;2.80;;;21.00;63.40;;;;;;5028283;28;20617;-69
2023/07/21 07:36:58;;;;;;;3.73;2.83;;;21.00;63.50;;;;;;5046163;28;20123;-69
2023/07/21 07:39:24;;;;;;;3.30;2.40;;;21.10;63.10;;;;;;5042020;28;20087;-68
2023/07/21 07:41:51;;;;;;;4.27;2.20;;;21.20;63.30;;;;;;5045014;28;20072;-69
2023/07/21 07:44:20;;;;;;;2.57;1.90;;;21.30;62.90;;;;;;5046573;28;20328;-69
2023/07/21 07:46:46;;;;;;;1.23;0.63;;;21.50;62.70;;;;;;5052697;28;20041;-69
2023/07/21 07:49:11;;;;;;;1.83;0.60;;;21.60;59.10;;;;;;5044506;28;20415;-68
2023/07/21 07:51:40;;;;;;;1.40;0.70;;;21.80;59.20;;;;;;5042753;28;20432;-68
2023/07/21 07:54:07;;;;;;;1.23;0.80;;;22.00;58.00;;;;;;5044538;28;20093;-69
2023/07/21 07:56:33;;;;;;;1.73;0.70;;;22.10;57.40;;;;;;5042993;28;20045;-69
2023/07/21 07:58:59;;;;;;;1.57;0.60;;;22.20;57.70;;;;;;5033069;28;20072;-68
2023/07/21 08:01:26;;;;;;;3.43;1.53;;;22.30;57.80;;;;;;5033945;28;20527;-69
2023/07/21 08:03:53;;;;;;;2.60;1.10;;;22.50;56.70;;;;;;5036853;28;20824;-69
2023/07/21 08:06:19;;;;;;;3.07;1.80;;;22.60;56.80;;;;;;5038068;28;20211;-69
2023/07/21 08:08:46;;;;;;;4.50;1.93;;;22.70;56.80;;;;;;5011370;28;20051;-68
2023/07/21 08:11:18;;;;;;;3.17;1.80;;;22.70;57.20;;;;;;5029019;28;20041;-69
2023/07/21 08:13:44;;;;;;;2.37;1.87;;;22.80;56.60;;;;;;5021889;28;20103;-68
2023/07/21 08:16:13;;;;;;;3.10;1.70;;;22.50;56.00;;;;;;5033530;28;20033;-70
2023/07/21 08:18:39;;;;;;;4.10;1.67;;;22.40;57.10;;;;;;5029250;28;20122;-69
2023/07/21 08:21:19;;;;;;;3.20;1.37;;;22.30;56.10;;;;;;5018190;28;20039;-68
2023/07/21 08:23:46;;;;;;;2.10;1.27;;;22.20;57.30;;;;;;5014990;28;20045;-69
2023/07/21 08:26:11;;;;;;;4.17;1.53;;;22.20;57.60;;;;;;5023608;28;20076;-68
2023/07/21 08:28:37;;;;;;;2.47;1.60;;;22.40;57.40;;;;;;5020943;28;20079;-69
2023/07/21 08:31:03;;;;;;;4.77;1.47;;;22.60;55.50;;;;;;5040959;28;20044;-68
2023/07/21 08:33:29;;;;;;;1.87;1.10;;;22.80;56.20;;;;;;5034915;28;20184;-68
2023/07/21 08:35:55;;;;;;;2.27;1.20;;;22.90;55.70;;;;;;5046727;28;20088;-69
2023/07/21 08:38:21;;;;;;;3.17;1.40;;;22.80;54.60;;;;;;5025270;28;20076;-69
2023/07/21 08:40:55;;;;;;;1.53;0.70;;;22.80;54.50;;;;;;5033209;28;20188;-68
2023/07/21 08:43:21;;;;;;;3.47;0.93;;;22.80;54.90;;;;;;5039621;28;20163;-69
2023/07/21 08:45:49;;;;;;;2.07;0.80;;;22.70;53.70;;;;;;5032378;28;20749;-68
2023/07/21 08:48:17;;;;;;;6.03;2.00;;;22.60;53.60;;;;;;5046773;28;20512;-69
2023/07/21 08:50:47;;;;;;;2.53;1.20;;;22.60;54.20;;;;;;5036209;28;20049;-67
2023/07/21 08:53:13;;;;;;;1.70;1.10;;;22.60;54.10;;;;;;5041382;28;20064;-68
2023/07/21 08:55:39;;;;;;;2.27;1.93;;;22.60;53.70;;;;;;5031764;28;20037;-68
2023/07/21 08:58:06;;;;;;;4.10;2.53;;;22.40;53.60;;;;;;5039553;28;20048;-68
2023/07/21 09:00:32;;;;;;;3.80;2.70;;;22.00;55.10;;;;;;4998752;28;20084;-67
2023/07/21 09:03:00;;;;;;;2.60;2.27;;;21.80;56.10;;;;;;4990955;28;20069;-67
2023/07/21 09:05:26;;;;;;;2.97;2.13;;;21.60;56.60;;;;;;4997467;28;20038;-67
2023/07/21 09:07:52;;;;;;;2.57;2.00;;;21.60;57.20;;;;;;4985533;28;20056;-68
2023/07/21 09:10:44;;;;;;;2.03;1.30;;;21.70;57.30;;;;;;5008723;28;20281;-67
2023/07/21 09:13:15;;;;;;;2.00;1.20;;;21.70;56.20;;;;;;4996655;28;20077;-68
2023/07/21 09:15:49;;;;;;;2.63;0.90;;;21.60;55.90;;;;;;4996149;28;20069;-67
2023/07/21 09:18:14;;;;;;;3.50;0.97;;;21.50;55.90;;;;;;4987632;28;20140;-67
2023/07/21 09:20:40;;;;;;;1.60;0.80;;;21.40;56.60;;;;;;5002542;28;20148;-67
2023/07/21 09:23:07;;;;;;;1.50;0.87;;;21.30;56.60;;;;;;4987905;28;20560;-68
2023/07/21 09:25:33;;;;;;;2.00;0.90;;;21.20;57.40;;;;;;5000330;28;20128;-68
2023/07/21 09:28:03;;;;;;;1.90;0.80;;;21.10;57.20;;;;;;5000714;28;20048;-68
2023/07/21 09:30:29;;;;;;;2.63;1.20;;;21.00;57.00;;;;;;5002091;28;20498;-68
2023/07/21 09:32:56;;;;;;;1.97;0.93;;;21.00;57.80;;;;;;5006155;28;20052;-68
2023/07/21 09:35:22;;;;;;;2.10;1.00;;;21.10;58.10;;;;;;5003964;28;20041;-68
2023/07/21 09:37:51;;;;;;;2.20;0.80;;;21.20;57.60;;;;;;5001951;28;20104;-68
2023/07/21 09:40:17;;;;;;;1.73;1.20;;;21.30;57.00;;;;;;5010606;28;20041;-68
2023/07/21 09:42:43;;;;;;;4.70;1.17;;;21.30;57.30;;;;;;5007147;28;20100;-68
2023/07/21 09:45:09;;;;;;;3.57;1.33;;;21.40;57.70;;;;;;4981403;28;20061;-68
2023/07/21 09:47:41;;;;;;;1.90;1.10;;;21.50;58.10;;;;;;5007776;28;20652;-68
2023/07/21 09:50:07;;;;;;;2.27;0.90;;;21.70;57.80;;;;;;5010576;28;20045;-67
2023/07/21 09:52:38;;;;;;;2.03;1.13;;;21.80;57.10;;;;;;4998003;28;20038;-67
2023/07/21 09:55:13;;;;;;;2.50;1.13;;;21.80;56.60;;;;;;4998749;28;20042;-68
2023/07/21 09:57:45;;;;;;;2.47;1.20;;;21.90;56.70;;;;;;4993716;28;20119;-68
2023/07/21 10:00:13;;;;;;;1.67;1.47;;;21.90;56.50;;;;;;5026014;28;20092;-68
2023/07/21 10:02:47;;;;;;;3.20;1.60;;;22.00;56.70;;;;;;5031190;28;20414;-68
2023/07/21 10:05:14;;;;;;;2.10;1.00;;;22.10;57.40;;;;;;5031575;28;20091;-68
2023/07/21 10:07:42;;;;;;;2.23;1.20;;;22.10;55.30;;;;;;5031183;28;20052;-68
2023/07/21 10:10:09;;;;;;;1.97;0.93;;;22.20;55.00;;;;;;5046096;28;20044;-68
2023/07/21 10:12:49;;;;;;;2.23;1.13;;;22.20;53.60;;;;;;5036212;28;20156;-67
2023/07/21 10:15:21;;;;;;;1.60;0.90;;;22.40;53.70;;;;;;5039637;28;20033;-68
2023/07/21 10:18:06;;;;;;;1.53;0.80;;;22.60;53.90;;;;;;5041981;28;20045;-68
2023/07/21 10:20:39;;;;;;;2.47;0.90;;;22.60;52.10;;;;;;5048088;28;20062;-68
2023/07/21 10:23:05;;;;;;;2.67;1.03;;;22.60;52.10;;;;;;5047006;28;20076;-68
2023/07/21 10:25:51;;;;;;;2.10;0.83;;;22.50;52.40;;;;;;5041458;28;20037;-68
2023/07/21 10:28:43;;;;;;;1.87;1.10;;;22.50;53.80;;;;;;5023421;28;20055;-68
2023/07/21 10:31:21;;;;;;;1.77;1.00;;;22.80;51.50;;;;;;5042742;28;20038;-68
2023/07/21 10:34:06;;;;;;;2.83;1.20;;;22.90;52.10;;;;;;5033958;28;20485;-68
2023/07/21 10:36:54;;;;;;;2.42;1.30;;;22.90;51.90;;;;;;5036947;28;20118;-68
2023/07/21 10:39:22;;;;;;;2.97;1.30;;;22.70;52.10;;;;;;5037963;28;20051;-68
2023/07/21 10:42:03;;;;;;;3.07;1.83;;;22.30;52.90;;;;;;5041509;28;20135;-68
2023/07/21 10:44:47;;;;;;;3.07;1.50;;;22.10;53.20;;;;;;5041047;28;20044;-68
2023/07/21 10:47:21;;;;;;;3.00;1.58;;;21.90;54.10;;;;;;5045585;28;21134;-68
2023/07/21 10:49:48;;;;;;;3.73;1.87;;;21.60;54.70;;;;;;5038688;28;20045;-68
2023/07/21 10:52:14;;;;;;;4.00;2.13;;;21.50;55.20;;;;;;5039077;28;20593;-68
2023/07/21 10:54:40;;;;;;;3.27;2.17;;;21.30;55.10;;;;;;5036230;28;20040;-68
2023/07/21 10:57:07;;;;;;;4.87;2.17;;;21.20;55.70;;;;;;5035449;28;20040;-68
2023/07/21 10:59:35;;;;;;;2.97;2.00;;;21.20;56.00;;;;;;5033490;28;20410;-68
2023/07/21 11:02:04;;;;;;;3.20;2.27;;;21.10;56.90;;;;;;5041753;28;20052;-67
2023/07/21 11:04:30;;;;;;;4.80;2.30;;;21.00;56.20;;;;;;5022358;28;20120;-67
2023/07/21 11:06:58;;;;;;;3.97;2.57;;;21.00;56.40;;;;;;5035435;28;20068;-68
2023/07/21 11:09:25;;;;;;;4.13;2.60;;;21.10;56.90;;;;;;5039770;28;20087;-68
2023/07/21 11:11:53;;;;;;;3.80;2.40;;;21.30;56.80;;;;;;5048094;28;20053;-67
2023/07/21 11:14:24;;;;;;;3.27;2.47;;;21.70;56.30;;;;;;5046299;28;20068;-68
2023/07/21 11:16:55;;;;;;;4.07;2.53;;;22.10;54.50;;;;;;5045782;28;20443;-68
2023/07/21 11:19:23;;;;;;;3.00;2.37;;;22.30;54.50;;;;;;5037864;28;20085;-68
2023/07/21 11:21:49;;;;;;;3.87;2.20;;;22.50;53.20;;;;;;5038573;28;20033;-67
2023/07/21 11:24:19;;;;;;;3.67;2.30;;;22.60;53.50;;;;;;5037696;28;20485;-68
2023/07/21 11:26:49;;;;;;;3.97;2.10;;;22.60;53.90;;;;;;5036140;28;20049;-68
2023/07/21 11:29:16;;;;;;;2.93;1.87;;;22.60;52.70;;;;;;5033513;28;20081;-68
2023/07/21 11:31:42;;;;;;;2.80;1.80;;;22.50;51.10;;;;;;5039654;28;20585;-68
2023/07/21 11:34:18;;;;;;;3.10;1.63;;;22.60;50.50;;;;;;5030168;28;20049;-67
2023/07/21 11:36:46;;;;;;;3.23;2.20;;;22.50;51.20;;;;;;5036476;28;20533;-68
2023/07/21 11:39:14;;;;;;;3.43;2.33;;;22.30;51.50;;;;;;5041210;28;20057;-68
2023/07/21 11:41:40;;;;;;;4.87;2.50;;;22.10;51.80;;;;;;5037877;28;20048;-68
2023/07/21 11:44:10;;;;;;;10.30;5.17;;;21.80;54.10;;;;;;5042270;28;20045;-68
2023/07/21 11:46:37;;;;;;;7.37;3.20;;;21.30;62.10;;;;;;5041133;28;20126;-69
2023/07/21 11:49:10;;;;;;;5.97;3.30;;;20.20;63.10;;;;;;5033065;28;20049;-69
2023/07/21 11:52:03;;;;;;;6.73;4.33;;;19.50;64.20;;;;;;5038222;28;20072;-69
2023/07/21 11:54:35;;;;;;;3.13;2.13;;;18.90;67.00;;;;;;5034789;28;20055;-69
2023/07/21 11:57:01;;;;;;;2.00;1.40;;;18.20;67.80;;;;;;5041900;28;20107;-69
2023/07/21 11:59:28;;;;;;;2.30;0.80;;;17.70;70.30;;;;;;5032078;28;20518;-68
2023/07/21 12:01:55;;;;;;;1.50;0.97;;;17.20;70.00;;;;;;5035183;28;20049;-68
2023/07/21 12:04:22;;;;;;;1.40;0.70;;;16.90;70.80;;;;;;5040044;28;20045;-68
2023/07/21 12:06:48;;;;;;;1.77;0.73;;;16.70;71.90;;;;;;5042270;28;20045;-68
2023/07/21 12:09:16;;;;;;;1.27;0.90;;;16.60;72.80;;;;;;5037585;28;20307;-68
2023/07/21 12:11:43;;;;;;;2.53;1.30;;;16.60;73.00;;;;;;5043878;28;20387;-68
2023/07/21 12:14:09;;;;;;;3.03;0.90;;;16.60;73.60;;;;;;5045276;28;20299;-68
2023/07/21 12:16:35;;;;;;;1.33;0.70;;;16.60;73.60;;;;;;5049082;28;20303;-68
2023/07/21 12:19:03;;;;;;;1.73;0.87;;;16.60;74.20;;;;;;5045386;28;20058;-69
2023/07/21 12:21:29;;;;;;;1.40;0.87;;;16.60;74.20;;;;;;5048118;28;20283;-69
2023/07/21 12:23:55;;;;;;;2.70;1.00;;;16.70;73.80;;;;;;5043194;28;20284;-69
2023/07/21 12:26:21;;;;;;;1.63;1.10;;;16.70;74.70;;;;;;5053975;28;20283;-69
2023/07/21 12:28:48;;;;;;;1.87;1.17;;;16.60;74.60;;;;;;5044344;28;20041;-69
2023/07/21 12:31:15;;;;;;;2.60;1.50;;;16.60;75.50;;;;;;5038015;28;20292;-69
2023/07/21 12:33:42;;;;;;;3.13;1.50;;;16.50;77.30;;;;;;5035350;28;20280;-70
2023/07/21 12:36:09;;;;;;;2.63;1.70;;;16.50;77.80;;;;;;5044581;28;20283;-70
2023/07/21 12:38:35;;;;;;;3.73;1.70;;;16.40;77.80;;;;;;5040351;28;20302;-71
2023/07/21 12:41:01;;;;;;;2.87;1.53;;;16.40;79.60;;;;;;5045502;28;20292;-70
2023/07/21 12:43:27;;;;;;;3.00;2.00;;;16.40;81.00;;;;;;5050159;28;20302;-70
2023/07/21 12:45:52;;;;;;;2.87;2.07;;;16.40;79.80;;;;;;5052079;28;20052;-70
2023/07/21 12:48:18;;;;;;;3.37;2.40;;;16.30;80.50;;;;;;5032875;28;20076;-71